sensor_id;sensor_type;location;lat;lon;timestamp;temperature;humidity
38788;DHT22;24536;45.488;12.238;2023-07-09T00:01:21;27.20;73.70
38788;DHT22;24536;45.488;12.238;2023-07-09T00:03:47;27.10;73.70
38788;DHT22;24536;45.488;12.238;2023-07-09T00:06:17;27.20;73.70
38788;DHT22;24536;45.488;12.238;2023-07-09T00:08:44;27.10;73.50
38788;DHT22;24536;45.488;12.238;2023-07-09T00:11:12;27.10;73.40
38788;DHT22;24536;45.488;12.238;2023-07-09T00:13:38;27.10;74.00
38788;DHT22;24536;45.488;12.238;2023-07-09T00:16:16;27.10;73.30
38788;DHT22;24536;45.488;12.238;2023-07-09T00:18:44;27.10;73.40
38788;DHT22;24536;45.488;12.238;2023-07-09T00:21:10;27.10;73.20
38788;DHT22;24536;45.488;12.238;2023-07-09T00:23:36;27.10;73.20
38788;DHT22;24536;45.488;12.238;2023-07-09T00:26:10;27.10;73.40
38788;DHT22;24536;45.488;12.238;2023-07-09T00:28:42;27.10;73.40
38788;DHT22;24536;45.488;12.238;2023-07-09T00:31:12;27.10;73.30
38788;DHT22;24536;45.488;12.238;2023-07-09T00:33:40;27.00;73.30
38788;DHT22;24536;45.488;12.238;2023-07-09T00:36:20;27.00;73.30
38788;DHT22;24536;45.488;12.238;2023-07-09T00:38:49;26.90;73.40
38788;DHT22;24536;45.488;12.238;2023-07-09T00:41:19;26.90;73.50
38788;DHT22;24536;45.488;12.238;2023-07-09T00:43:46;26.90;73.60
38788;DHT22;24536;45.488;12.238;2023-07-09T00:49:04;26.90;73.60
38788;DHT22;24536;45.488;12.238;2023-07-09T00:51:31;26.90;73.40
38788;DHT22;24536;45.488;12.238;2023-07-09T00:54:03;26.90;73.40
38788;DHT22;24536;45.488;12.238;2023-07-09T00:56:42;26.80;73.20
38788;DHT22;24536;45.488;12.238;2023-07-09T00:59:12;26.80;73.20
38788;DHT22;24536;45.488;12.238;2023-07-09T01:01:39;26.90;73.30
38788;DHT22;24536;45.488;12.238;2023-07-09T01:04:06;26.90;73.20
38788;DHT22;24536;45.488;12.238;2023-07-09T01:06:44;26.80;73.30
38788;DHT22;24536;45.488;12.238;2023-07-09T01:09:11;26.80;73.60
38788;DHT22;24536;45.488;12.238;2023-07-09T01:11:37;26.80;73.80
38788;DHT22;24536;45.488;12.238;2023-07-09T01:14:05;26.90;74.10
38788;DHT22;24536;45.488;12.238;2023-07-09T01:16:37;26.80;74.30
38788;DHT22;24536;45.488;12.238;2023-07-09T01:19:05;26.80;74.30
38788;DHT22;24536;45.488;12.238;2023-07-09T01:21:31;26.80;74.40
38788;DHT22;24536;45.488;12.238;2023-07-09T01:23:58;26.80;74.60
38788;DHT22;24536;45.488;12.238;2023-07-09T01:26:26;26.80;74.70
38788;DHT22;24536;45.488;12.238;2023-07-09T01:28:56;26.80;74.80
38788;DHT22;24536;45.488;12.238;2023-07-09T01:31:22;26.80;74.90
38788;DHT22;24536;45.488;12.238;2023-07-09T01:33:48;26.80;74.80
38788;DHT22;24536;45.488;12.238;2023-07-09T01:36:19;26.70;74.90
38788;DHT22;24536;45.488;12.238;2023-07-09T01:38:48;26.70;74.60
38788;DHT22;24536;45.488;12.238;2023-07-09T01:41:15;26.70;74.50
38788;DHT22;24536;45.488;12.238;2023-07-09T01:43:42;26.70;74.70
38788;DHT22;24536;45.488;12.238;2023-07-09T01:46:09;26.70;74.90
38788;DHT22;24536;45.488;12.238;2023-07-09T01:48:35;26.70;75.10
38788;DHT22;24536;45.488;12.238;2023-07-09T01:51:09;26.60;75.00
38788;DHT22;24536;45.488;12.238;2023-07-09T01:53:36;26.60;75.10
38788;DHT22;24536;45.488;12.238;2023-07-09T01:56:03;26.60;75.00
38788;DHT22;24536;45.488;12.238;2023-07-09T01:58:29;26.60;75.00
38788;DHT22;24536;45.488;12.238;2023-07-09T02:00:58;26.60;74.70
38788;DHT22;24536;45.488;12.238;2023-07-09T02:03:24;26.60;74.40
38788;DHT22;24536;45.488;12.238;2023-07-09T02:05:52;26.60;74.10
38788;DHT22;24536;45.488;12.238;2023-07-09T02:08:19;26.50;74.10
38788;DHT22;24536;45.488;12.238;2023-07-09T02:10:45;26.50;74.30
38788;DHT22;24536;45.488;12.238;2023-07-09T02:13:13;26.50;74.40
38788;DHT22;24536;45.488;12.238;2023-07-09T02:15:39;26.50;74.40
38788;DHT22;24536;45.488;12.238;2023-07-09T02:18:12;26.40;74.70
38788;DHT22;24536;45.488;12.238;2023-07-09T02:20:37;26.50;74.30
38788;DHT22;24536;45.488;12.238;2023-07-09T02:23:03;26.40;74.30
38788;DHT22;24536;45.488;12.238;2023-07-09T02:25:29;26.40;74.50
38788;DHT22;24536;45.488;12.238;2023-07-09T02:27:54;26.40;74.90
38788;DHT22;24536;45.488;12.238;2023-07-09T02:30:20;26.40;75.20
38788;DHT22;24536;45.488;12.238;2023-07-09T02:32:46;26.40;75.50
38788;DHT22;24536;45.488;12.238;2023-07-09T02:35:12;26.40;75.50
38788;DHT22;24536;45.488;12.238;2023-07-09T02:37:38;26.40;75.50
38788;DHT22;24536;45.488;12.238;2023-07-09T02:40:05;26.40;75.40
38788;DHT22;24536;45.488;12.238;2023-07-09T02:42:30;26.30;75.30
38788;DHT22;24536;45.488;12.238;2023-07-09T02:44:56;26.30;75.50
38788;DHT22;24536;45.488;12.238;2023-07-09T02:47:22;26.30;75.80
38788;DHT22;24536;45.488;12.238;2023-07-09T02:49:47;26.30;76.00
38788;DHT22;24536;45.488;12.238;2023-07-09T02:52:14;26.30;76.10
38788;DHT22;24536;45.488;12.238;2023-07-09T02:54:39;26.30;76.10
38788;DHT22;24536;45.488;12.238;2023-07-09T02:57:05;26.20;76.30
38788;DHT22;24536;45.488;12.238;2023-07-09T02:59:31;26.20;76.30
38788;DHT22;24536;45.488;12.238;2023-07-09T03:01:59;26.20;76.30
38788;DHT22;24536;45.488;12.238;2023-07-09T03:04:25;26.20;75.90
38788;DHT22;24536;45.488;12.238;2023-07-09T03:06:51;26.20;75.70
38788;DHT22;24536;45.488;12.238;2023-07-09T03:09:18;26.10;75.60
38788;DHT22;24536;45.488;12.238;2023-07-09T03:11:44;26.10;75.60
38788;DHT22;24536;45.488;12.238;2023-07-09T03:14:10;26.10;75.60
38788;DHT22;24536;45.488;12.238;2023-07-09T03:16:35;26.10;75.80
38788;DHT22;24536;45.488;12.238;2023-07-09T03:19:02;26.10;75.90
38788;DHT22;24536;45.488;12.238;2023-07-09T03:21:30;26.00;75.90
38788;DHT22;24536;45.488;12.238;2023-07-09T03:23:56;26.00;76.10
38788;DHT22;24536;45.488;12.238;2023-07-09T03:26:22;26.00;76.20
38788;DHT22;24536;45.488;12.238;2023-07-09T03:28:47;26.00;76.40
38788;DHT22;24536;45.488;12.238;2023-07-09T03:31:13;26.00;76.50
38788;DHT22;24536;45.488;12.238;2023-07-09T03:33:39;25.90;76.60
38788;DHT22;24536;45.488;12.238;2023-07-09T03:36:05;25.90;76.70
38788;DHT22;24536;45.488;12.238;2023-07-09T03:38:31;25.90;76.90
38788;DHT22;24536;45.488;12.238;2023-07-09T03:40:57;25.90;77.00
38788;DHT22;24536;45.488;12.238;2023-07-09T03:43:23;25.90;77.10
38788;DHT22;24536;45.488;12.238;2023-07-09T03:45:49;25.90;77.20
38788;DHT22;24536;45.488;12.238;2023-07-09T03:48:17;25.90;77.20
38788;DHT22;24536;45.488;12.238;2023-07-09T03:50:45;25.90;77.30
38788;DHT22;24536;45.488;12.238;2023-07-09T03:53:11;25.90;77.30
38788;DHT22;24536;45.488;12.238;2023-07-09T03:55:37;25.90;77.40
38788;DHT22;24536;45.488;12.238;2023-07-09T03:58:04;25.90;77.60
38788;DHT22;24536;45.488;12.238;2023-07-09T04:00:30;25.90;78.00
38788;DHT22;24536;45.488;12.238;2023-07-09T04:02:57;25.90;78.10
38788;DHT22;24536;45.488;12.238;2023-07-09T04:05:23;25.90;78.10
38788;DHT22;24536;45.488;12.238;2023-07-09T04:07:50;25.90;78.00
38788;DHT22;24536;45.488;12.238;2023-07-09T04:10:15;25.90;77.70
38788;DHT22;24536;45.488;12.238;2023-07-09T04:12:42;25.90;77.20
38788;DHT22;24536;45.488;12.238;2023-07-09T04:15:08;25.90;77.00
38788;DHT22;24536;45.488;12.238;2023-07-09T04:17:34;25.90;76.80
38788;DHT22;24536;45.488;12.238;2023-07-09T04:19:59;25.90;76.80
38788;DHT22;24536;45.488;12.238;2023-07-09T04:22:25;25.90;76.70
38788;DHT22;24536;45.488;12.238;2023-07-09T04:24:51;25.90;76.70
38788;DHT22;24536;45.488;12.238;2023-07-09T04:27:18;25.80;76.80
38788;DHT22;24536;45.488;12.238;2023-07-09T04:29:44;25.80;76.80
38788;DHT22;24536;45.488;12.238;2023-07-09T04:32:14;25.80;77.00
38788;DHT22;24536;45.488;12.238;2023-07-09T04:34:41;25.70;77.10
38788;DHT22;24536;45.488;12.238;2023-07-09T04:37:09;25.70;77.40
38788;DHT22;24536;45.488;12.238;2023-07-09T04:39:35;25.70;77.90
38788;DHT22;24536;45.488;12.238;2023-07-09T04:42:01;25.70;77.60
38788;DHT22;24536;45.488;12.238;2023-07-09T04:44:27;25.60;77.80
38788;DHT22;24536;45.488;12.238;2023-07-09T04:46:53;25.70;77.70
38788;DHT22;24536;45.488;12.238;2023-07-09T04:49:19;25.70;77.60
38788;DHT22;24536;45.488;12.238;2023-07-09T04:51:44;25.70;77.60
38788;DHT22;24536;45.488;12.238;2023-07-09T04:54:10;25.60;77.70
38788;DHT22;24536;45.488;12.238;2023-07-09T04:56:36;25.70;77.70
38788;DHT22;24536;45.488;12.238;2023-07-09T04:59:03;25.70;77.70
38788;DHT22;24536;45.488;12.238;2023-07-09T05:01:28;25.70;77.90
38788;DHT22;24536;45.488;12.238;2023-07-09T05:03:55;25.70;77.80
38788;DHT22;24536;45.488;12.238;2023-07-09T05:06:21;25.80;78.10
38788;DHT22;24536;45.488;12.238;2023-07-09T05:08:47;25.80;77.90
38788;DHT22;24536;45.488;12.238;2023-07-09T05:11:14;25.90;78.00
38788;DHT22;24536;45.488;12.238;2023-07-09T05:13:40;25.90;77.70
38788;DHT22;24536;45.488;12.238;2023-07-09T05:16:06;25.90;76.70
38788;DHT22;24536;45.488;12.238;2023-07-09T05:18:32;25.90;76.70
38788;DHT22;24536;45.488;12.238;2023-07-09T05:20:58;25.90;76.40
38788;DHT22;24536;45.488;12.238;2023-07-09T05:23:27;25.90;76.30
38788;DHT22;24536;45.488;12.238;2023-07-09T05:25:57;26.00;76.30
38788;DHT22;24536;45.488;12.238;2023-07-09T05:28:23;26.00;76.50
38788;DHT22;24536;45.488;12.238;2023-07-09T05:30:49;26.00;76.90
38788;DHT22;24536;45.488;12.238;2023-07-09T05:33:16;26.00;77.20
38788;DHT22;24536;45.488;12.238;2023-07-09T05:35:42;26.10;77.40
38788;DHT22;24536;45.488;12.238;2023-07-09T05:38:08;26.10;77.10
38788;DHT22;24536;45.488;12.238;2023-07-09T05:40:34;26.00;77.00
38788;DHT22;24536;45.488;12.238;2023-07-09T05:42:59;26.00;77.50
38788;DHT22;24536;45.488;12.238;2023-07-09T05:45:25;26.00;77.70
38788;DHT22;24536;45.488;12.238;2023-07-09T05:47:51;25.90;77.80
38788;DHT22;24536;45.488;12.238;2023-07-09T05:50:16;25.90;78.20
38788;DHT22;24536;45.488;12.238;2023-07-09T05:52:42;26.00;78.20
38788;DHT22;24536;45.488;12.238;2023-07-09T05:55:08;26.00;78.00
38788;DHT22;24536;45.488;12.238;2023-07-09T05:57:34;26.00;78.10
38788;DHT22;24536;45.488;12.238;2023-07-09T05:59:59;26.10;78.30
38788;DHT22;24536;45.488;12.238;2023-07-09T06:02:25;26.10;78.20
38788;DHT22;24536;45.488;12.238;2023-07-09T06:04:51;26.20;78.30
38788;DHT22;24536;45.488;12.238;2023-07-09T06:07:16;26.20;77.90
38788;DHT22;24536;45.488;12.238;2023-07-09T06:09:44;26.20;78.10
38788;DHT22;24536;45.488;12.238;2023-07-09T06:12:11;26.20;78.00
38788;DHT22;24536;45.488;12.238;2023-07-09T06:14:37;26.30;77.80
38788;DHT22;24536;45.488;12.238;2023-07-09T06:17:03;26.30;77.40
38788;DHT22;24536;45.488;12.238;2023-07-09T06:19:29;26.30;77.10
38788;DHT22;24536;45.488;12.238;2023-07-09T06:21:54;26.40;77.20
38788;DHT22;24536;45.488;12.238;2023-07-09T06:24:21;26.40;77.50
38788;DHT22;24536;45.488;12.238;2023-07-09T06:26:47;26.40;77.90
38788;DHT22;24536;45.488;12.238;2023-07-09T06:29:13;26.50;78.10
38788;DHT22;24536;45.488;12.238;2023-07-09T06:31:39;26.50;78.00
38788;DHT22;24536;45.488;12.238;2023-07-09T06:34:06;26.60;77.80
38788;DHT22;24536;45.488;12.238;2023-07-09T06:36:35;26.60;77.70
38788;DHT22;24536;45.488;12.238;2023-07-09T06:39:01;26.70;77.20
38788;DHT22;24536;45.488;12.238;2023-07-09T06:41:28;26.70;76.40
38788;DHT22;24536;45.488;12.238;2023-07-09T06:43:54;26.80;76.10
38788;DHT22;24536;45.488;12.238;2023-07-09T06:46:20;26.80;75.90
38788;DHT22;24536;45.488;12.238;2023-07-09T06:48:46;26.80;75.90
38788;DHT22;24536;45.488;12.238;2023-07-09T06:51:12;26.80;75.80
38788;DHT22;24536;45.488;12.238;2023-07-09T06:53:37;26.90;75.90
38788;DHT22;24536;45.488;12.238;2023-07-09T06:56:05;27.00;76.00
38788;DHT22;24536;45.488;12.238;2023-07-09T06:58:32;27.00;75.60
38788;DHT22;24536;45.488;12.238;2023-07-09T07:01:01;27.10;74.90
38788;DHT22;24536;45.488;12.238;2023-07-09T07:03:29;27.10;74.40
38788;DHT22;24536;45.488;12.238;2023-07-09T07:05:55;27.10;74.30
38788;DHT22;24536;45.488;12.238;2023-07-09T07:08:22;27.20;74.00
38788;DHT22;24536;45.488;12.238;2023-07-09T07:10:50;27.20;73.80
38788;DHT22;24536;45.488;12.238;2023-07-09T07:13:16;27.30;73.60
38788;DHT22;24536;45.488;12.238;2023-07-09T07:15:48;27.40;73.30
38788;DHT22;24536;45.488;12.238;2023-07-09T07:18:14;27.40;73.20
38788;DHT22;24536;45.488;12.238;2023-07-09T07:20:39;27.50;72.80
38788;DHT22;24536;45.488;12.238;2023-07-09T07:23:05;27.60;72.50
38788;DHT22;24536;45.488;12.238;2023-07-09T07:25:32;27.60;72.00
38788;DHT22;24536;45.488;12.238;2023-07-09T07:27:58;27.70;71.70
38788;DHT22;24536;45.488;12.238;2023-07-09T07:30:24;27.70;71.50
38788;DHT22;24536;45.488;12.238;2023-07-09T07:32:49;27.80;71.50
38788;DHT22;24536;45.488;12.238;2023-07-09T07:35:16;27.90;71.60
38788;DHT22;24536;45.488;12.238;2023-07-09T07:37:43;27.90;71.30
38788;DHT22;24536;45.488;12.238;2023-07-09T07:40:10;28.00;71.40
38788;DHT22;24536;45.488;12.238;2023-07-09T07:42:36;28.00;71.40
38788;DHT22;24536;45.488;12.238;2023-07-09T07:45:03;28.10;71.20
38788;DHT22;24536;45.488;12.238;2023-07-09T07:47:29;28.10;70.80
38788;DHT22;24536;45.488;12.238;2023-07-09T07:49:56;28.20;70.60
38788;DHT22;24536;45.488;12.238;2023-07-09T07:52:22;28.20;70.50
38788;DHT22;24536;45.488;12.238;2023-07-09T07:54:47;28.30;70.40
38788;DHT22;24536;45.488;12.238;2023-07-09T07:57:13;28.30;70.40
38788;DHT22;24536;45.488;12.238;2023-07-09T07:59:39;28.40;70.50
38788;DHT22;24536;45.488;12.238;2023-07-09T08:02:08;28.50;71.20
38788;DHT22;24536;45.488;12.238;2023-07-09T08:04:36;28.50;71.40
38788;DHT22;24536;45.488;12.238;2023-07-09T08:07:02;28.60;71.10
38788;DHT22;24536;45.488;12.238;2023-07-09T08:09:28;28.70;70.60
38788;DHT22;24536;45.488;12.238;2023-07-09T08:11:54;28.70;71.00
38788;DHT22;24536;45.488;12.238;2023-07-09T08:14:20;28.80;71.60
38788;DHT22;24536;45.488;12.238;2023-07-09T08:16:47;28.90;72.00
38788;DHT22;24536;45.488;12.238;2023-07-09T08:19:18;28.90;72.40
38788;DHT22;24536;45.488;12.238;2023-07-09T08:21:45;28.90;72.40
38788;DHT22;24536;45.488;12.238;2023-07-09T08:24:11;29.00;72.10
38788;DHT22;24536;45.488;12.238;2023-07-09T08:26:37;29.10;72.70
38788;DHT22;24536;45.488;12.238;2023-07-09T08:29:03;29.10;72.60
38788;DHT22;24536;45.488;12.238;2023-07-09T08:31:30;29.10;72.10
38788;DHT22;24536;45.488;12.238;2023-07-09T08:33:56;29.20;72.40
38788;DHT22;24536;45.488;12.238;2023-07-09T08:36:22;29.20;72.10
38788;DHT22;24536;45.488;12.238;2023-07-09T08:38:48;29.30;71.70
38788;DHT22;24536;45.488;12.238;2023-07-09T08:44:14;29.40;70.80
38788;DHT22;24536;45.488;12.238;2023-07-09T08:46:54;29.50;71.20
38788;DHT22;24536;45.488;12.238;2023-07-09T08:54:51;29.70;71.90
38788;DHT22;24536;45.488;12.238;2023-07-09T08:57:25;29.80;72.30
38788;DHT22;24536;45.488;12.238;2023-07-09T08:59:59;29.90;71.80
38788;DHT22;24536;45.488;12.238;2023-07-09T09:02:39;30.00;72.70
38788;DHT22;24536;45.488;12.238;2023-07-09T09:05:07;30.00;72.80
38788;DHT22;24536;45.488;12.238;2023-07-09T09:07:42;30.10;72.40
38788;DHT22;24536;45.488;12.238;2023-07-09T09:10:18;30.20;72.00
38788;DHT22;24536;45.488;12.238;2023-07-09T09:13:05;30.20;72.10
38788;DHT22;24536;45.488;12.238;2023-07-09T09:15:37;30.30;72.60
38788;DHT22;24536;45.488;12.238;2023-07-09T09:18:24;30.40;72.40
38788;DHT22;24536;45.488;12.238;2023-07-09T09:21:05;30.40;71.90
38788;DHT22;24536;45.488;12.238;2023-07-09T09:23:50;30.50;72.60
38788;DHT22;24536;45.488;12.238;2023-07-09T09:26:37;30.60;72.90
38788;DHT22;24536;45.488;12.238;2023-07-09T09:29:14;30.70;73.60
38788;DHT22;24536;45.488;12.238;2023-07-09T09:31:45;30.80;72.60
38788;DHT22;24536;45.488;12.238;2023-07-09T09:34:19;30.90;72.30
38788;DHT22;24536;45.488;12.238;2023-07-09T09:36:46;31.00;72.30
38788;DHT22;24536;45.488;12.238;2023-07-09T09:39:12;31.00;71.80
38788;DHT22;24536;45.488;12.238;2023-07-09T09:41:38;31.10;71.40
38788;DHT22;24536;45.488;12.238;2023-07-09T09:44:04;31.20;71.50
38788;DHT22;24536;45.488;12.238;2023-07-09T09:46:32;31.30;71.90
38788;DHT22;24536;45.488;12.238;2023-07-09T09:49:02;31.40;71.60
38788;DHT22;24536;45.488;12.238;2023-07-09T09:51:29;31.40;71.50
38788;DHT22;24536;45.488;12.238;2023-07-09T09:54:00;31.50;71.60
38788;DHT22;24536;45.488;12.238;2023-07-09T09:56:34;31.50;71.50
38788;DHT22;24536;45.488;12.238;2023-07-09T09:59:00;31.50;71.60
38788;DHT22;24536;45.488;12.238;2023-07-09T10:01:32;31.60;71.60
38788;DHT22;24536;45.488;12.238;2023-07-09T10:04:02;31.70;71.30
38788;DHT22;24536;45.488;12.238;2023-07-09T10:06:38;31.80;71.30
38788;DHT22;24536;45.488;12.238;2023-07-09T10:12:16;32.00;71.30
38788;DHT22;24536;45.488;12.238;2023-07-09T10:17:37;32.10;70.80
38788;DHT22;24536;45.488;12.238;2023-07-09T10:33:12;32.80;69.70
38788;DHT22;24536;45.488;12.238;2023-07-09T10:35:59;32.90;69.70
38788;DHT22;24536;45.488;12.238;2023-07-09T10:41:18;33.20;68.30
38788;DHT22;24536;45.488;12.238;2023-07-09T10:43:50;33.20;68.40
38788;DHT22;24536;45.488;12.238;2023-07-09T10:46:22;33.30;68.30
38788;DHT22;24536;45.488;12.238;2023-07-09T10:48:54;33.30;67.90
38788;DHT22;24536;45.488;12.238;2023-07-09T10:51:31;33.50;67.90
38788;DHT22;24536;45.488;12.238;2023-07-09T10:56:43;33.70;66.80
38788;DHT22;24536;45.488;12.238;2023-07-09T10:59:15;33.80;66.60
38788;DHT22;24536;45.488;12.238;2023-07-09T11:01:45;33.90;67.00
38788;DHT22;24536;45.488;12.238;2023-07-09T11:04:24;34.00;66.80
38788;DHT22;24536;45.488;12.238;2023-07-09T11:06:53;34.20;65.80
38788;DHT22;24536;45.488;12.238;2023-07-09T11:09:27;34.30;65.80
38788;DHT22;24536;45.488;12.238;2023-07-09T11:11:58;34.40;65.20
38788;DHT22;24536;45.488;12.238;2023-07-09T11:14:35;34.50;64.80
38788;DHT22;24536;45.488;12.238;2023-07-09T11:17:04;34.60;63.80
38788;DHT22;24536;45.488;12.238;2023-07-09T11:19:31;34.70;64.10
38788;DHT22;24536;45.488;12.238;2023-07-09T11:21:59;34.90;64.30
38788;DHT22;24536;45.488;12.238;2023-07-09T11:24:46;35.10;64.20
38788;DHT22;24536;45.488;12.238;2023-07-09T11:27:27;35.30;62.90
38788;DHT22;24536;45.488;12.238;2023-07-09T11:30:02;35.50;62.80
38788;DHT22;24536;45.488;12.238;2023-07-09T11:32:28;35.70;61.90
38788;DHT22;24536;45.488;12.238;2023-07-09T11:35:05;35.90;61.30
38788;DHT22;24536;45.488;12.238;2023-07-09T11:37:31;36.10;61.20
38788;DHT22;24536;45.488;12.238;2023-07-09T11:40:06;36.50;60.50
38788;DHT22;24536;45.488;12.238;2023-07-09T11:45:28;37.20;58.40
38788;DHT22;24536;45.488;12.238;2023-07-09T11:50:45;37.70;57.80
38788;DHT22;24536;45.488;12.238;2023-07-09T11:53:33;38.10;57.30
38788;DHT22;24536;45.488;12.238;2023-07-09T11:56:00;38.30;56.50
38788;DHT22;24536;45.488;12.238;2023-07-09T11:58:25;38.50;56.20
38788;DHT22;24536;45.488;12.238;2023-07-09T12:00:55;38.70;55.50
38788;DHT22;24536;45.488;12.238;2023-07-09T12:03:28;38.90;54.50
38788;DHT22;24536;45.488;12.238;2023-07-09T12:06:00;39.10;54.30
38788;DHT22;24536;45.488;12.238;2023-07-09T12:08:37;39.10;53.50
38788;DHT22;24536;45.488;12.238;2023-07-09T12:11:04;39.20;52.80
38788;DHT22;24536;45.488;12.238;2023-07-09T12:13:39;39.40;53.30
38788;DHT22;24536;45.488;12.238;2023-07-09T12:18:45;39.60;52.90
38788;DHT22;24536;45.488;12.238;2023-07-09T12:21:12;39.70;51.90
38788;DHT22;24536;45.488;12.238;2023-07-09T12:23:40;39.90;51.90
38788;DHT22;24536;45.488;12.238;2023-07-09T12:26:06;40.00;51.70
38788;DHT22;24536;45.488;12.238;2023-07-09T12:28:36;40.10;51.50
38788;DHT22;24536;45.488;12.238;2023-07-09T12:31:02;40.30;50.40
38788;DHT22;24536;45.488;12.238;2023-07-09T12:33:28;40.40;50.40
38788;DHT22;24536;45.488;12.238;2023-07-09T12:36:02;40.50;49.90
38788;DHT22;24536;45.488;12.238;2023-07-09T12:38:43;40.50;50.40
38788;DHT22;24536;45.488;12.238;2023-07-09T12:41:29;40.60;49.90
38788;DHT22;24536;45.488;12.238;2023-07-09T12:43:57;40.70;50.40
38788;DHT22;24536;45.488;12.238;2023-07-09T12:46:24;40.70;50.10
38788;DHT22;24536;45.488;12.238;2023-07-09T12:48:50;40.90;50.30
38788;DHT22;24536;45.488;12.238;2023-07-09T12:51:21;40.90;50.00
38788;DHT22;24536;45.488;12.238;2023-07-09T12:53:48;41.00;49.20
38788;DHT22;24536;45.488;12.238;2023-07-09T12:56:16;41.00;49.00
38788;DHT22;24536;45.488;12.238;2023-07-09T12:58:42;41.10;48.20
38788;DHT22;24536;45.488;12.238;2023-07-09T13:01:18;41.00;48.70
38788;DHT22;24536;45.488;12.238;2023-07-09T13:03:55;41.00;48.60
38788;DHT22;24536;45.488;12.238;2023-07-09T13:06:30;41.00;48.40
38788;DHT22;24536;45.488;12.238;2023-07-09T13:08:59;41.00;48.20
38788;DHT22;24536;45.488;12.238;2023-07-09T13:11:35;41.00;48.20
38788;DHT22;24536;45.488;12.238;2023-07-09T13:14:20;41.00;48.40
38788;DHT22;24536;45.488;12.238;2023-07-09T13:16:47;40.90;48.00
38788;DHT22;24536;45.488;12.238;2023-07-09T13:19:13;40.80;48.10
38788;DHT22;24536;45.488;12.238;2023-07-09T13:21:39;40.70;48.10
38788;DHT22;24536;45.488;12.238;2023-07-09T13:24:22;40.70;47.90
38788;DHT22;24536;45.488;12.238;2023-07-09T13:26:48;40.70;48.00
38788;DHT22;24536;45.488;12.238;2023-07-09T13:29:15;40.40;47.30
38788;DHT22;24536;45.488;12.238;2023-07-09T13:31:43;40.30;48.00
38788;DHT22;24536;45.488;12.238;2023-07-09T13:34:36;40.30;47.50
38788;DHT22;24536;45.488;12.238;2023-07-09T13:37:02;40.30;46.20
38788;DHT22;24536;45.488;12.238;2023-07-09T13:39:28;40.30;47.60
38788;DHT22;24536;45.488;12.238;2023-07-09T13:41:53;40.30;46.80
38788;DHT22;24536;45.488;12.238;2023-07-09T13:44:23;40.30;47.40
38788;DHT22;24536;45.488;12.238;2023-07-09T13:46:50;40.30;47.40
38788;DHT22;24536;45.488;12.238;2023-07-09T13:49:19;40.30;47.30
38788;DHT22;24536;45.488;12.238;2023-07-09T13:51:47;40.30;47.30
38788;DHT22;24536;45.488;12.238;2023-07-09T13:56:45;40.30;46.90
38788;DHT22;24536;45.488;12.238;2023-07-09T13:59:17;40.10;46.70
38788;DHT22;24536;45.488;12.238;2023-07-09T14:01:44;40.10;47.10
38788;DHT22;24536;45.488;12.238;2023-07-09T14:04:15;40.00;46.80
38788;DHT22;24536;45.488;12.238;2023-07-09T14:06:41;39.90;47.50
38788;DHT22;24536;45.488;12.238;2023-07-09T14:09:11;39.70;47.90
38788;DHT22;24536;45.488;12.238;2023-07-09T14:11:44;39.60;47.70
38788;DHT22;24536;45.488;12.238;2023-07-09T14:16:48;39.30;48.00
38788;DHT22;24536;45.488;12.238;2023-07-09T14:19:16;39.20;48.10
38788;DHT22;24536;45.488;12.238;2023-07-09T14:21:42;39.00;48.50
38788;DHT22;24536;45.488;12.238;2023-07-09T14:24:20;38.90;48.70
38788;DHT22;24536;45.488;12.238;2023-07-09T14:26:57;38.70;48.50
38788;DHT22;24536;45.488;12.238;2023-07-09T14:29:24;38.60;49.00
38788;DHT22;24536;45.488;12.238;2023-07-09T14:31:50;38.50;49.10
38788;DHT22;24536;45.488;12.238;2023-07-09T14:34:30;38.40;49.40
38788;DHT22;24536;45.488;12.238;2023-07-09T14:36:58;38.20;49.40
38788;DHT22;24536;45.488;12.238;2023-07-09T14:39:27;38.20;49.40
38788;DHT22;24536;45.488;12.238;2023-07-09T14:41:53;38.10;49.20
38788;DHT22;24536;45.488;12.238;2023-07-09T14:44:29;38.00;49.30
38788;DHT22;24536;45.488;12.238;2023-07-09T14:46:57;37.90;49.00
38788;DHT22;24536;45.488;12.238;2023-07-09T14:49:24;37.80;49.50
38788;DHT22;24536;45.488;12.238;2023-07-09T14:51:51;37.60;49.50
38788;DHT22;24536;45.488;12.238;2023-07-09T14:56:48;37.40;50.00
38788;DHT22;24536;45.488;12.238;2023-07-09T14:59:14;37.40;50.60
38788;DHT22;24536;45.488;12.238;2023-07-09T15:01:40;37.20;50.30
38788;DHT22;24536;45.488;12.238;2023-07-09T15:06:53;37.00;50.90
38788;DHT22;24536;45.488;12.238;2023-07-09T15:09:22;36.80;51.00
38788;DHT22;24536;45.488;12.238;2023-07-09T15:11:52;36.70;51.10
38788;DHT22;24536;45.488;12.238;2023-07-09T15:14:17;36.60;51.40
38788;DHT22;24536;45.488;12.238;2023-07-09T15:16:43;36.50;51.90
38788;DHT22;24536;45.488;12.238;2023-07-09T15:19:20;36.40;52.40
38788;DHT22;24536;45.488;12.238;2023-07-09T15:21:47;36.30;52.60
38788;DHT22;24536;45.488;12.238;2023-07-09T15:24:24;36.20;52.80
38788;DHT22;24536;45.488;12.238;2023-07-09T15:26:52;36.10;52.70
38788;DHT22;24536;45.488;12.238;2023-07-09T15:29:19;36.00;52.80
38788;DHT22;24536;45.488;12.238;2023-07-09T15:31:44;35.90;53.00
38788;DHT22;24536;45.488;12.238;2023-07-09T15:34:10;35.90;53.40
38788;DHT22;24536;45.488;12.238;2023-07-09T15:36:36;35.80;53.50
38788;DHT22;24536;45.488;12.238;2023-07-09T15:39:02;35.70;53.60
38788;DHT22;24536;45.488;12.238;2023-07-09T15:41:28;35.70;53.90
38788;DHT22;24536;45.488;12.238;2023-07-09T15:43:54;35.60;53.90
38788;DHT22;24536;45.488;12.238;2023-07-09T15:46:21;35.60;54.00
38788;DHT22;24536;45.488;12.238;2023-07-09T15:48:48;35.50;54.10
38788;DHT22;24536;45.488;12.238;2023-07-09T15:51:15;35.50;53.30
38788;DHT22;24536;45.488;12.238;2023-07-09T15:53:41;35.40;53.20
38788;DHT22;24536;45.488;12.238;2023-07-09T15:56:25;35.40;53.50
38788;DHT22;24536;45.488;12.238;2023-07-09T15:58:52;35.30;53.90
38788;DHT22;24536;45.488;12.238;2023-07-09T16:01:19;35.30;53.40
38788;DHT22;24536;45.488;12.238;2023-07-09T16:03:53;35.20;53.70
38788;DHT22;24536;45.488;12.238;2023-07-09T16:06:20;35.20;53.50
38788;DHT22;24536;45.488;12.238;2023-07-09T16:08:46;35.20;53.20
38788;DHT22;24536;45.488;12.238;2023-07-09T16:11:15;35.10;52.90
38788;DHT22;24536;45.488;12.238;2023-07-09T16:13:41;35.10;53.30
38788;DHT22;24536;45.488;12.238;2023-07-09T16:16:13;35.00;53.30
38788;DHT22;24536;45.488;12.238;2023-07-09T16:18:39;35.00;53.50